Time;durP1;ratioP1;P1;durP2;ratioP2;P2;SDS_P1;SDS_P2;PMS_P1;PMS_P2;Temp;Humidity;BMP_temperature;BMP_pressure;BME280_temperature;BME280_humidity;BME280_pressure;Samples;Min_cycle;Max_cycle;Signal;HPM_P1;HPM_P2
2023/03/26 00:02:23;;;;;;;24.20;4.40;;;9.30;99.90;;;;;;5051777;28;20021;-41
2023/03/26 00:04:49;;;;;;;26.85;4.05;;;9.20;99.90;;;;;;5051776;28;20033;-44
2023/03/26 00:07:15;;;;;;;25.73;4.50;;;9.30;99.90;;;;;;5050902;28;20017;-47
2023/03/26 00:09:41;;;;;;;28.40;4.50;;;9.20;99.90;;;;;;5033814;28;20386;-43
2023/03/26 00:12:07;;;;;;;30.80;4.22;;;9.20;99.90;;;;;;5048197;28;20091;-48
2023/03/26 00:14:34;;;;;;;24.38;3.85;;;9.30;99.90;;;;;;5033116;28;20022;-44
2023/03/26 00:17:00;;;;;;;27.23;3.97;;;9.20;99.90;;;;;;5029412;28;20111;-45
2023/03/26 00:19:26;;;;;;;19.95;3.80;;;9.30;99.90;;;;;;5033572;28;20076;-41
2023/03/26 00:21:52;;;;;;;29.67;4.05;;;9.20;99.90;;;;;;5042955;28;20029;-43
2023/03/26 00:24:18;;;;;;;22.27;3.63;;;9.20;99.90;;;;;;5037812;28;20033;-43
2023/03/26 00:26:47;;;;;;;19.17;3.38;;;9.30;99.90;;;;;;5027865;28;20091;-46
2023/03/26 00:29:14;;;;;;;27.40;4.05;;;9.30;99.90;;;;;;5038965;28;20014;-42
2023/03/26 00:31:44;;;;;;;15.23;3.83;;;9.30;99.90;;;;;;5023747;28;20400;-42
2023/03/26 00:34:10;;;;;;;20.60;3.05;;;9.30;99.90;;;;;;5041543;28;20051;-41
2023/03/26 00:36:36;;;;;;;12.80;3.25;;;9.40;99.90;;;;;;5043153;28;20060;-42
2023/03/26 00:39:04;;;;;;;17.38;3.30;;;9.40;99.90;;;;;;5043686;28;20382;-43
2023/03/26 00:41:41;;;;;;;15.80;3.23;;;9.40;99.90;;;;;;5042456;28;20113;-41
2023/03/26 00:44:08;;;;;;;16.75;2.65;;;9.50;99.90;;;;;;5044557;28;20311;-44
2023/03/26 00:46:33;;;;;;;12.45;2.47;;;9.60;99.90;;;;;;5044101;28;20064;-46
2023/03/26 00:49:00;;;;;;;17.98;3.70;;;9.60;99.90;;;;;;5042090;28;20045;-48
2023/03/26 00:51:27;;;;;;;22.55;3.45;;;9.70;99.90;;;;;;5049285;28;20029;-42
2023/03/26 00:53:53;;;;;;;18.20;3.53;;;9.70;99.90;;;;;;5050165;28;20021;-45
2023/03/26 00:56:19;;;;;;;20.60;3.20;;;9.70;99.90;;;;;;5048295;28;20028;-46
2023/03/26 00:58:46;;;;;;;30.90;5.40;;;9.80;99.90;;;;;;5050016;28;20032;-50
2023/03/26 01:01:17;;;;;;;15.73;3.45;;;9.80;99.90;;;;;;5019206;28;20394;-41
2023/03/26 01:03:44;;;;;;;16.75;3.35;;;9.80;99.90;;;;;;5037146;28;20033;-50
2023/03/26 01:06:26;;;;;;;17.60;2.92;;;9.80;99.90;;;;;;5049700;28;20068;-44
2023/03/26 01:08:53;;;;;;;20.80;3.67;;;9.80;99.90;;;;;;5050304;28;20382;-49
2023/03/26 01:11:20;;;;;;;17.13;3.17;;;9.70;99.90;;;;;;5050674;28;20017;-41
2023/03/26 01:14:00;;;;;;;16.88;3.47;;;9.70;99.90;;;;;;5050362;28;20017;-41
2023/03/26 01:16:38;;;;;;;13.50;2.67;;;9.60;99.90;;;;;;5050463;28;20024;-48
2023/03/26 01:19:09;;;;;;;17.10;3.00;;;9.60;99.90;;;;;;5050100;28;20497;-53
2023/03/26 01:21:37;;;;;;;14.93;2.72;;;9.50;99.90;;;;;;5050651;28;20029;-46
2023/03/26 01:24:05;;;;;;;14.18;3.00;;;9.40;99.90;;;;;;5032407;28;20041;-42
2023/03/26 01:26:56;;;;;;;19.27;2.72;;;9.40;99.90;;;;;;5046846;28;20490;-46
2023/03/26 01:29:46;;;;;;;19.08;2.47;;;9.40;99.90;;;;;;5049302;28;20033;-41
2023/03/26 01:32:30;;;;;;;13.95;2.80;;;9.40;99.90;;;;;;5054938;28;20036;-45
2023/03/26 01:35:01;;;;;;;10.18;1.85;;;9.30;99.90;;;;;;5054796;28;20104;-43
2023/03/26 01:37:41;;;;;;;12.90;2.63;;;9.30;99.90;;;;;;5054247;28;20049;-47
2023/03/26 01:40:25;;;;;;;17.23;3.05;;;9.20;99.90;;;;;;5049872;28;20091;-42
2023/03/26 01:42:57;;;;;;;16.77;2.78;;;9.20;99.90;;;;;;5054260;28;20516;-42
2023/03/26 01:45:29;;;;;;;12.05;2.25;;;9.10;99.90;;;;;;5054268;28;20037;-47
2023/03/26 01:47:56;;;;;;;15.48;1.95;;;9.00;99.90;;;;;;5054117;28;20017;-42
2023/03/26 01:50:22;;;;;;;12.75;2.33;;;9.00;99.90;;;;;;5054187;28;20523;-41
2023/03/26 01:52:48;;;;;;;14.00;2.67;;;8.90;99.90;;;;;;5053037;28;20059;-46
2023/03/26 01:55:13;;;;;;;16.27;3.55;;;8.90;99.90;;;;;;5053946;28;20052;-42
2023/03/26 01:58:20;;;;;;;14.88;2.92;;;8.80;99.90;;;;;;5052706;28;20074;-42
2023/03/26 02:01:12;;;;;;;15.40;2.70;;;8.70;99.90;;;;;;4991936;28;20023;-50
2023/03/26 02:03:55;;;;;;;12.18;1.95;;;8.70;99.90;;;;;;4992206;28;20053;-41
2023/03/26 02:06:36;;;;;;;12.00;1.90;;;8.60;99.90;;;;;;5026733;28;20518;-46
2023/03/26 02:09:08;;;;;;;12.38;1.92;;;8.60;99.90;;;;;;5054149;28;20033;-48
2023/03/26 02:11:36;;;;;;;7.25;2.22;;;8.50;99.90;;;;;;5053601;28;20501;-44
2023/03/26 02:14:05;;;;;;;11.60;1.80;;;8.50;99.90;;;;;;5053876;28;20021;-43
2023/03/26 02:16:31;;;;;;;9.77;1.20;;;8.40;99.90;;;;;;5053321;28;20028;-53
2023/03/26 02:18:58;;;;;;;10.07;1.48;;;8.40;99.90;;;;;;5053582;28;20053;-41
2023/03/26 02:21:26;;;;;;;9.40;2.22;;;8.40;99.90;;;;;;5053806;28;20024;-50
2023/03/26 02:24:01;;;;;;;6.13;1.42;;;8.30;99.90;;;;;;5053838;28;20055;-50
2023/03/26 02:26:29;;;;;;;9.93;1.73;;;8.30;99.90;;;;;;5050848;28;20123;-50
2023/03/26 02:28:56;;;;;;;8.18;1.45;;;8.30;99.90;;;;;;5052053;28;20020;-45
2023/03/26 02:31:25;;;;;;;15.88;1.88;;;8.20;99.90;;;;;;5053544;28;20028;-44
2023/03/26 02:33:51;;;;;;;10.25;2.10;;;8.20;99.90;;;;;;5053382;28;20037;-42
2023/03/26 02:36:23;;;;;;;13.95;2.40;;;8.20;99.90;;;;;;5053422;28;20029;-47
2023/03/26 02:38:49;;;;;;;14.82;2.67;;;8.10;99.90;;;;;;5053250;28;20638;-41
2023/03/26 02:41:15;;;;;;;13.30;2.60;;;8.10;99.90;;;;;;5052725;28;20111;-49
2023/03/26 02:43:41;;;;;;;12.20;2.58;;;8.00;99.90;;;;;;5053149;28;20079;-50
2023/03/26 02:46:06;;;;;;;14.98;3.38;;;8.00;99.90;;;;;;5035290;28;20094;-47
2023/03/26 02:48:33;;;;;;;11.02;2.03;;;8.00;99.90;;;;;;5035286;28;20091;-46
2023/03/26 02:50:59;;;;;;;13.25;2.00;;;7.90;99.90;;;;;;5051629;28;20128;-47
2023/03/26 02:53:28;;;;;;;11.60;1.75;;;7.90;99.90;;;;;;5053012;28;20028;-41
2023/03/26 02:55:54;;;;;;;10.32;1.92;;;7.90;99.90;;;;;;5047203;28;20074;-44
2023/03/26 02:58:20;;;;;;;12.50;2.25;;;7.90;99.90;;;;;;5052951;28;20032;-51
2023/03/26 03:00:49;;;;;;;7.07;1.52;;;7.90;99.90;;;;;;5034890;28;20028;-41
2023/03/26 03:03:16;;;;;;;11.00;1.50;;;7.80;99.90;;;;;;5052771;28;20470;-41
2023/03/26 03:05:42;;;;;;;9.52;1.58;;;7.70;99.90;;;;;;5052724;28;20563;-44
2023/03/26 03:08:09;;;;;;;8.20;1.70;;;7.70;99.90;;;;;;5052886;28;20013;-42
2023/03/26 03:10:36;;;;;;;10.45;1.80;;;7.70;99.90;;;;;;5052797;28;20071;-42
2023/03/26 03:13:04;;;;;;;9.55;2.00;;;7.60;99.90;;;;;;5052715;28;20478;-46
2023/03/26 03:15:30;;;;;;;8.93;1.90;;;7.70;99.90;;;;;;5052480;28;20031;-44
2023/03/26 03:17:55;;;;;;;13.63;1.80;;;7.60;99.90;;;;;;5052647;28;20100;-41
2023/03/26 03:20:21;;;;;;;7.28;1.67;;;7.60;99.90;;;;;;5052421;28;20049;-41
2023/03/26 03:22:47;;;;;;;7.30;1.90;;;7.60;99.90;;;;;;5024679;28;20078;-41
2023/03/26 03:25:16;;;;;;;9.63;1.50;;;7.60;99.90;;;;;;5052377;28;20040;-41
2023/03/26 03:27:43;;;;;;;15.20;1.90;;;7.50;99.90;;;;;;5052574;28;20025;-43
2023/03/26 03:30:11;;;;;;;11.45;1.80;;;7.50;99.90;;;;;;5052418;28;20025;-41
2023/03/26 03:32:37;;;;;;;8.20;2.22;;;7.50;99.90;;;;;;5052303;28;20032;-41
2023/03/26 03:35:03;;;;;;;10.80;1.80;;;7.50;99.90;;;;;;5052397;28;20029;-44
2023/03/26 03:37:28;;;;;;;12.20;1.90;;;7.50;99.90;;;;;;5052186;28;20025;-41
2023/03/26 03:39:54;;;;;;;7.47;1.88;;;7.50;99.90;;;;;;5051991;28;20382;-44
2023/03/26 03:42:20;;;;;;;8.30;2.22;;;7.50;99.90;;;;;;5052086;28;20413;-46
2023/03/26 03:44:45;;;;;;;9.43;1.85;;;7.50;99.90;;;;;;5052180;28;20029;-42
2023/03/26 03:47:12;;;;;;;7.82;1.70;;;7.50;99.90;;;;;;5052058;28;20036;-43
2023/03/26 03:49:39;;;;;;;9.23;1.73;;;7.50;99.90;;;;;;5034485;28;20040;-41
2023/03/26 03:52:05;;;;;;;10.73;1.88;;;7.50;99.90;;;;;;5050847;28;20025;-42
2023/03/26 03:54:31;;;;;;;6.20;1.50;;;7.60;99.90;;;;;;5050858;28;20025;-42
2023/03/26 03:56:57;;;;;;;7.13;1.60;;;7.50;99.90;;;;;;5051860;28;20112;-42
2023/03/26 03:59:23;;;;;;;12.55;1.70;;;7.50;99.90;;;;;;5051695;28;20021;-48
2023/03/26 04:01:49;;;;;;;7.10;1.85;;;7.50;99.90;;;;;;5051907;28;20394;-41
2023/03/26 04:04:15;;;;;;;5.72;1.50;;;7.50;99.90;;;;;;5051587;28;20025;-45
2023/03/26 04:06:41;;;;;;;6.00;1.30;;;7.50;99.90;;;;;;5051700;28;20086;-44
2023/03/26 04:09:08;;;;;;;6.65;1.63;;;7.50;99.90;;;;;;5051702;28;20028;-47
2023/03/26 04:11:34;;;;;;;7.78;1.50;;;7.40;99.90;;;;;;5051485;28;20492;-46
2023/03/26 04:14:00;;;;;;;6.07;1.30;;;7.50;99.90;;;;;;5051782;28;20025;-42
2023/03/26 04:16:26;;;;;;;7.95;1.58;;;7.50;99.90;;;;;;5051384;28;20127;-43
2023/03/26 04:18:51;;;;;;;6.68;1.50;;;7.50;99.90;;;;;;5051214;28;20175;-43
2023/03/26 04:21:18;;;;;;;8.27;1.67;;;7.50;99.90;;;;;;5044176;28;20050;-43
2023/03/26 04:23:44;;;;;;;3.90;1.33;;;7.50;99.90;;;;;;5051386;28;20025;-43
2023/03/26 04:26:16;;;;;;;6.05;1.45;;;7.50;99.90;;;;;;5051286;28;20036;-44
2023/03/26 04:28:47;;;;;;;4.55;1.58;;;7.50;99.90;;;;;;5020068;28;20028;-41
2023/03/26 04:31:17;;;;;;;6.75;1.50;;;7.50;99.90;;;;;;5051280;28;20124;-44
2023/03/26 04:33:49;;;;;;;8.98;1.70;;;7.50;99.90;;;;;;5051087;28;20436;-46
2023/03/26 04:36:15;;;;;;;4.82;1.50;;;7.50;99.90;;;;;;5051093;28;20186;-52
2023/03/26 04:38:44;;;;;;;5.82;1.25;;;7.40;99.90;;;;;;5050854;28;20029;-43
2023/03/26 04:41:14;;;;;;;6.47;1.60;;;7.40;99.90;;;;;;5051044;28;20023;-49
2023/03/26 04:43:45;;;;;;;7.03;1.17;;;7.40;99.90;;;;;;5051160;28;20025;-42
2023/03/26 04:46:17;;;;;;;3.47;1.35;;;7.40;99.90;;;;;;5050842;28;20044;-42
2023/03/26 04:48:43;;;;;;;8.27;1.90;;;7.40;99.90;;;;;;5050865;28;20067;-43
2023/03/26 04:51:16;;;;;;;2.97;1.20;;;7.40;99.90;;;;;;5048576;28;20043;-45
2023/03/26 04:53:52;;;;;;;4.53;1.33;;;7.40;99.90;;;;;;5051074;28;20087;-45
2023/03/26 04:56:44;;;;;;;4.25;1.10;;;7.30;99.90;;;;;;5050706;28;20063;-42
2023/03/26 04:59:15;;;;;;;5.43;1.58;;;7.40;99.90;;;;;;5050727;28;20457;-48
2023/03/26 05:01:44;;;;;;;3.65;1.60;;;7.30;99.90;;;;;;5051052;28;20029;-45
2023/03/26 05:04:11;;;;;;;3.53;1.30;;;7.30;99.90;;;;;;5050315;28;20023;-56
2023/03/26 05:06:38;;;;;;;2.45;1.15;;;7.30;99.90;;;;;;5033134;28;20510;-47
2023/03/26 05:09:04;;;;;;;4.00;1.60;;;7.30;99.90;;;;;;5050614;28;20043;-53
2023/03/26 05:11:30;;;;;;;6.45;1.40;;;7.30;99.90;;;;;;5050469;28;20382;-52
2023/03/26 05:13:56;;;;;;;2.50;1.23;;;7.30;99.90;;;;;;5050560;28;20053;-45
2023/03/26 05:16:23;;;;;;;4.50;1.23;;;7.30;99.90;;;;;;5050513;28;20099;-46
2023/03/26 05:18:50;;;;;;;5.22;1.30;;;7.30;99.90;;;;;;5050596;28;20089;-54
2023/03/26 05:21:16;;;;;;;2.50;1.20;;;7.30;99.90;;;;;;5043655;28;20025;-53
2023/03/26 05:23:41;;;;;;;3.40;1.10;;;7.20;99.90;;;;;;5046580;28;20025;-46
2023/03/26 05:26:08;;;;;;;3.85;1.35;;;7.20;99.90;;;;;;5045301;28;20051;-52
2023/03/26 05:28:34;;;;;;;4.78;1.70;;;7.20;99.90;;;;;;5043050;28;20049;-41
2023/03/26 05:31:00;;;;;;;6.50;1.38;;;7.20;99.90;;;;;;5045185;28;20067;-50
2023/03/26 05:33:26;;;;;;;3.97;1.20;;;7.20;99.90;;;;;;5041851;28;20367;-47
2023/03/26 05:36:00;;;;;;;5.40;1.33;;;7.20;99.90;;;;;;5043902;28;20103;-49
2023/03/26 05:38:27;;;;;;;5.28;1.38;;;7.20;99.90;;;;;;5042678;28;20494;-46
2023/03/26 05:41:00;;;;;;;9.30;1.75;;;7.20;99.90;;;;;;5043268;28;20029;-45
2023/03/26 05:43:26;;;;;;;4.28;1.33;;;7.20;99.90;;;;;;5043770;28;20021;-46
2023/03/26 05:45:52;;;;;;;2.85;1.40;;;7.20;99.90;;;;;;5042281;28;20052;-51
2023/03/26 05:48:17;;;;;;;5.15;1.60;;;7.20;99.90;;;;;;5045259;28;20017;-44
2023/03/26 05:50:43;;;;;;;3.75;1.38;;;7.20;99.90;;;;;;5031990;28;20389;-46
2023/03/26 05:53:08;;;;;;;7.70;1.80;;;7.30;99.90;;;;;;5045213;28;20032;-44
2023/03/26 05:55:34;;;;;;;4.15;1.30;;;7.30;99.90;;;;;;5041432;28;20030;-47
2023/03/26 05:58:00;;;;;;;3.80;1.45;;;7.30;99.90;;;;;;5045214;28;20021;-53
2023/03/26 06:00:26;;;;;;;2.03;1.10;;;7.30;99.90;;;;;;5043372;28;20363;-49
2023/03/26 06:02:53;;;;;;;1.67;0.98;;;7.30;99.90;;;;;;5048005;28;20021;-41
2023/03/26 06:05:19;;;;;;;3.53;0.90;;;7.20;99.90;;;;;;5050126;28;20037;-47
2023/03/26 06:07:45;;;;;;;5.50;1.20;;;7.20;99.90;;;;;;5049886;28;20399;-43
2023/03/26 06:10:10;;;;;;;7.80;1.40;;;7.10;99.90;;;;;;5049927;28;20029;-45
2023/03/26 06:12:36;;;;;;;4.32;1.20;;;7.10;99.90;;;;;;5050064;28;20029;-47
2023/03/26 06:15:02;;;;;;;1.58;0.75;;;7.10;99.90;;;;;;5049999;28;20028;-44
2023/03/26 06:17:28;;;;;;;2.33;0.80;;;7.00;99.90;;;;;;5034506;28;20080;-56
2023/03/26 06:19:54;;;;;;;1.90;0.80;;;7.00;99.90;;;;;;5035533;28;20041;-44
2023/03/26 06:22:20;;;;;;;1.75;0.70;;;6.90;99.90;;;;;;5053780;28;20379;-49
2023/03/26 06:24:45;;;;;;;3.08;1.15;;;6.90;99.90;;;;;;5053297;28;20405;-42
2023/03/26 06:27:11;;;;;;;5.20;1.00;;;7.00;99.90;;;;;;5048700;28;20389;-43
2023/03/26 06:29:37;;;;;;;2.10;0.80;;;7.00;99.90;;;;;;5053695;28;20060;-52
2023/03/26 06:32:02;;;;;;;1.48;0.60;;;7.00;99.90;;;;;;5053751;28;20029;-56
2023/03/26 06:34:28;;;;;;;1.17;0.60;;;7.10;99.90;;;;;;5053471;28;20469;-43
2023/03/26 06:36:53;;;;;;;1.17;0.50;;;7.10;99.90;;;;;;5053633;28;20032;-40
2023/03/26 06:39:19;;;;;;;0.75;0.52;;;7.00;99.90;;;;;;5053405;28;20063;-50
2023/03/26 06:41:45;;;;;;;3.38;0.90;;;7.00;99.90;;;;;;5053448;28;20064;-56
2023/03/26 06:44:11;;;;;;;1.40;0.60;;;7.00;99.90;;;;;;5053472;28;20103;-53
2023/03/26 06:46:37;;;;;;;1.38;0.57;;;7.00;99.90;;;;;;5053348;28;20124;-43
2023/03/26 06:49:03;;;;;;;1.02;0.50;;;7.00;99.90;;;;;;5053310;28;20017;-51
2023/03/26 06:51:28;;;;;;;0.98;0.50;;;7.00;99.90;;;;;;5053295;28;20025;-46
2023/03/26 06:53:54;;;;;;;0.63;0.40;;;7.10;99.90;;;;;;5053148;28;20039;-48
2023/03/26 06:56:19;;;;;;;0.88;0.32;;;7.10;99.90;;;;;;5047554;28;20025;-51
2023/03/26 06:58:45;;;;;;;0.45;0.30;;;7.20;99.90;;;;;;5044247;28;20043;-51
2023/03/26 07:01:11;;;;;;;0.35;0.35;;;7.20;99.90;;;;;;5052376;28;20047;-51
2023/03/26 07:03:36;;;;;;;0.35;0.35;;;7.20;99.90;;;;;;5053065;28;20025;-49
2023/03/26 07:06:02;;;;;;;0.60;0.60;;;7.20;99.90;;;;;;5051420;28;20446;-49
2023/03/26 07:08:29;;;;;;;1.48;0.80;;;7.20;99.90;;;;;;5040673;28;20040;-41
2023/03/26 07:10:55;;;;;;;2.25;0.60;;;7.20;99.90;;;;;;5052155;28;20107;-48
2023/03/26 07:13:20;;;;;;;2.17;0.70;;;7.30;99.90;;;;;;5052717;28;20108;-49
2023/03/26 07:15:47;;;;;;;0.40;0.40;;;7.30;99.90;;;;;;5052979;28;20108;-42
2023/03/26 07:18:13;;;;;;;1.65;0.55;;;7.30;99.90;;;;;;5051731;28;20537;-41
2023/03/26 07:20:39;;;;;;;0.88;0.60;;;7.30;99.90;;;;;;5052621;28;20072;-47
2023/03/26 07:23:05;;;;;;;0.90;0.70;;;7.40;99.90;;;;;;5049200;28;20021;-45
2023/03/26 07:25:31;;;;;;;1.98;0.60;;;7.40;99.90;;;;;;5052707;28;20123;-43
2023/03/26 07:27:57;;;;;;;3.03;0.60;;;7.40;99.90;;;;;;5038514;28;20932;-45
2023/03/26 07:30:38;;;;;;;0.65;0.50;;;7.40;99.90;;;;;;5050672;28;20033;-44
2023/03/26 07:33:30;;;;;;;0.63;0.47;;;7.50;99.90;;;;;;5047400;28;20112;-41
2023/03/26 07:36:06;;;;;;;2.60;0.60;;;7.50;99.90;;;;;;5050846;28;20548;-44
2023/03/26 07:38:47;;;;;;;1.85;0.70;;;7.50;99.90;;;;;;5048730;28;20108;-48
2023/03/26 07:41:25;;;;;;;1.65;0.60;;;7.50;99.90;;;;;;5048902;28;20410;-42
2023/03/26 07:43:56;;;;;;;1.73;0.70;;;7.60;99.90;;;;;;5014732;28;20021;-41
2023/03/26 07:46:28;;;;;;;1.40;0.70;;;7.60;99.90;;;;;;5040001;28;20060;-41
2023/03/26 07:48:57;;;;;;;2.83;1.20;;;7.60;99.90;;;;;;5050066;28;20020;-47
2023/03/26 07:51:23;;;;;;;2.73;1.37;;;7.60;99.90;;;;;;5047524;28;20430;-45
2023/03/26 07:53:49;;;;;;;3.03;1.40;;;7.70;99.90;;;;;;5048570;28;20048;-48
2023/03/26 07:56:18;;;;;;;2.58;1.30;;;7.70;99.90;;;;;;5048751;28;20035;-44
2023/03/26 07:59:03;;;;;;;4.00;1.05;;;7.80;99.90;;;;;;5046636;28;20021;-42
2023/03/26 08:01:53;;;;;;;3.75;1.60;;;7.80;99.90;;;;;;5050840;28;20021;-44
2023/03/26 08:04:53;;;;;;;2.65;0.85;;;7.70;99.90;;;;;;5051589;28;20032;-45
2023/03/26 08:07:43;;;;;;;1.85;0.80;;;7.80;99.90;;;;;;5040337;28;20021;-51
2023/03/26 08:10:15;;;;;;;1.67;0.50;;;7.80;99.90;;;;;;5039483;28;20017;-41
2023/03/26 08:12:53;;;;;;;1.35;0.55;;;7.80;99.90;;;;;;5037968;28;20021;-44
2023/03/26 08:15:28;;;;;;;1.98;0.80;;;7.90;99.90;;;;;;5051465;28;20029;-44
2023/03/26 08:18:05;;;;;;;1.40;0.63;;;7.90;99.90;;;;;;5050647;28;20025;-48
2023/03/26 08:20:43;;;;;;;2.25;0.93;;;7.90;99.90;;;;;;5051368;28;20053;-43
2023/03/26 08:23:27;;;;;;;2.47;1.40;;;7.90;99.90;;;;;;5049468;28;20118;-44
2023/03/26 08:26:01;;;;;;;3.65;1.38;;;7.90;99.90;;;;;;5051230;28;20105;-40
2023/03/26 08:28:26;;;;;;;2.10;1.10;;;8.00;99.90;;;;;;5041276;28;20389;-41
2023/03/26 08:30:53;;;;;;;5.03;2.90;;;8.10;99.90;;;;;;5051266;28;20048;-45
2023/03/26 08:33:21;;;;;;;5.30;2.50;;;8.20;99.90;;;;;;5048022;28;20040;-50
2023/03/26 08:35:47;;;;;;;4.32;1.88;;;8.20;99.90;;;;;;5051233;28;20028;-41
2023/03/26 08:38:16;;;;;;;3.63;1.50;;;8.20;99.90;;;;;;5046672;28;20028;-44
2023/03/26 08:41:10;;;;;;;3.03;2.10;;;8.30;99.90;;;;;;5050556;28;20051;-43
2023/03/26 08:43:50;;;;;;;2.92;1.10;;;8.40;99.90;;;;;;5048065;28;20451;-47
2023/03/26 08:46:47;;;;;;;3.10;1.27;;;8.40;99.90;;;;;;5047634;28;20041;-56
2023/03/26 08:49:25;;;;;;;4.65;1.50;;;8.40;99.90;;;;;;5038466;28;20040;-48
2023/03/26 08:52:28;;;;;;;3.00;1.20;;;8.50;99.90;;;;;;5044648;28;20056;-46
2023/03/26 08:55:31;;;;;;;4.30;1.13;;;8.60;99.90;;;;;;5050741;28;20033;-42
2023/03/26 08:58:16;;;;;;;4.25;1.30;;;8.60;99.90;;;;;;5047076;28;20025;-42
2023/03/26 09:01:19;;;;;;;2.67;1.05;;;8.60;99.90;;;;;;5050638;28;20513;-46
2023/03/26 09:04:07;;;;;;;4.72;1.40;;;8.60;99.90;;;;;;5043561;28;20116;-45
2023/03/26 09:06:57;;;;;;;3.72;1.25;;;8.60;99.90;;;;;;5031287;28;20041;-53
2023/03/26 09:09:29;;;;;;;3.97;1.30;;;8.70;99.90;;;;;;5046088;28;20041;-45
2023/03/26 09:12:13;;;;;;;3.50;1.20;;;8.70;99.90;;;;;;5050342;28;20523;-43
2023/03/26 09:14:39;;;;;;;4.63;1.45;;;8.80;99.90;;;;;;5050655;28;20044;-42
2023/03/26 09:17:23;;;;;;;7.72;1.80;;;8.80;99.90;;;;;;5046107;28;20470;-42
2023/03/26 09:20:18;;;;;;;4.22;1.95;;;8.90;99.90;;;;;;5050168;28;20045;-44
2023/03/26 09:23:21;;;;;;;2.90;1.30;;;8.90;99.90;;;;;;5031090;28;20056;-44
2023/03/26 09:26:02;;;;;;;2.70;1.20;;;9.00;99.90;;;;;;5015035;28;20087;-50
2023/03/26 09:28:46;;;;;;;2.85;1.08;;;9.10;99.90;;;;;;5034434;28;20033;-43
2023/03/26 09:31:35;;;;;;;2.15;1.10;;;9.10;99.90;;;;;;5048044;28;20036;-51
2023/03/26 09:34:13;;;;;;;3.17;1.23;;;9.20;99.90;;;;;;5037470;28;20043;-42
2023/03/26 09:36:51;;;;;;;4.38;1.30;;;9.30;99.90;;;;;;5044725;28;20029;-52
2023/03/26 09:39:35;;;;;;;2.90;1.30;;;9.30;99.90;;;;;;5032517;28;20054;-47
2023/03/26 09:42:08;;;;;;;2.70;1.10;;;9.30;99.90;;;;;;5044058;28;20281;-50
2023/03/26 09:45:02;;;;;;;4.97;1.67;;;9.50;99.90;;;;;;5050773;28;20048;-41
2023/03/26 09:47:44;;;;;;;4.13;1.52;;;9.50;99.90;;;;;;5043093;28;20025;-43
2023/03/26 09:50:43;;;;;;;3.90;1.23;;;9.60;99.90;;;;;;5050331;28;20033;-44
2023/03/26 09:53:17;;;;;;;2.37;1.10;;;9.80;99.90;;;;;;5046033;28;20203;-42
2023/03/26 09:55:55;;;;;;;2.38;0.95;;;9.90;99.90;;;;;;5053256;28;20339;-41
2023/03/26 09:58:37;;;;;;;2.65;0.95;;;10.10;99.90;;;;;;5054219;28;20028;-42
2023/03/26 10:01:30;;;;;;;2.67;1.02;;;10.20;99.90;;;;;;5053345;28;20037;-41
2023/03/26 10:04:32;;;;;;;2.10;0.90;;;10.30;99.90;;;;;;5053990;28;20033;-49
2023/03/26 10:07:37;;;;;;;1.10;0.70;;;10.40;99.90;;;;;;5048783;28;20029;-45
2023/03/26 10:10:29;;;;;;;1.42;0.90;;;10.20;99.90;;;;;;5030435;28;20037;-42
2023/03/26 10:13:02;;;;;;;1.38;0.90;;;10.50;99.90;;;;;;5031390;28;20029;-44
2023/03/26 10:15:35;;;;;;;2.60;0.80;;;10.50;99.90;;;;;;5045980;28;20054;-47
2023/03/26 10:18:18;;;;;;;2.28;0.80;;;10.50;99.90;;;;;;5042070;28;20017;-42
2023/03/26 10:20:51;;;;;;;2.13;0.90;;;10.20;99.90;;;;;;5053572;28;20189;-49
2023/03/26 10:23:31;;;;;;;2.47;0.90;;;10.10;99.90;;;;;;5043873;28;20033;-46
2023/03/26 10:26:23;;;;;;;1.90;0.90;;;10.20;99.90;;;;;;5053502;28;20056;-44
2023/03/26 10:28:58;;;;;;;1.50;0.80;;;10.30;99.90;;;;;;5051736;28;20025;-42
2023/03/26 10:31:51;;;;;;;3.15;0.98;;;10.20;99.90;;;;;;5049887;28;20025;-47
2023/03/26 10:34:54;;;;;;;0.77;0.70;;;10.10;99.90;;;;;;5040769;28;20029;-42
2023/03/26 10:37:28;;;;;;;2.28;0.90;;;9.90;99.90;;;;;;5035662;28;20316;-50
2023/03/26 10:40:00;;;;;;;2.40;0.73;;;9.90;99.90;;;;;;5042926;28;20033;-43
2023/03/26 10:42:49;;;;;;;2.22;0.80;;;9.80;99.90;;;;;;5044003;28;20414;-43
2023/03/26 10:45:25;;;;;;;1.17;0.77;;;9.90;99.90;;;;;;5032289;28;20045;-42
2023/03/26 10:48:02;;;;;;;2.05;0.80;;;10.00;99.90;;;;;;5017017;28;20033;-44
2023/03/26 10:50:49;;;;;;;1.35;0.70;;;10.00;99.90;;;;;;5045502;28;20060;-48
2023/03/26 10:53:50;;;;;;;0.65;0.57;;;10.10;99.90;;;;;;5046785;28;20466;-45
2023/03/26 10:56:22;;;;;;;1.83;0.60;;;10.40;99.90;;;;;;5032400;28;20045;-46
2023/03/26 10:58:48;;;;;;;1.70;0.68;;;11.10;99.90;;;;;;5048423;28;20075;-43
2023/03/26 11:01:23;;;;;;;2.05;0.60;;;11.70;99.90;;;;;;5048318;28;20037;-46
2023/03/26 11:03:54;;;;;;;1.33;0.57;;;11.60;99.90;;;;;;5053015;28;20047;-48
2023/03/26 11:06:49;;;;;;;1.15;0.75;;;11.70;99.90;;;;;;5049625;28;20099;-47
2023/03/26 11:09:27;;;;;;;1.40;0.63;;;11.50;99.90;;;;;;4952591;28;20031;-46
2023/03/26 11:12:07;;;;;;;1.67;0.60;;;11.70;99.90;;;;;;5044854;28;20455;-42
2023/03/26 11:15:14;;;;;;;0.75;0.55;;;11.70;99.90;;;;;;5037614;28;20021;-47
2023/03/26 11:17:50;;;;;;;1.05;0.65;;;11.60;99.90;;;;;;5041612;28;20497;-49
2023/03/26 11:20:19;;;;;;;2.05;0.70;;;11.40;99.90;;;;;;5037216;28;20065;-42
2023/03/26 11:23:02;;;;;;;0.80;0.60;;;11.20;99.90;;;;;;5037791;28;20029;-49
2023/03/26 11:25:48;;;;;;;1.08;0.60;;;11.10;99.90;;;;;;5024165;28;20577;-42
2023/03/26 11:28:38;;;;;;;1.02;0.63;;;11.10;99.90;;;;;;5047939;28;20103;-40
2023/03/26 11:31:12;;;;;;;;;;;11.20;99.90;;;;;;5034577;28;20025;-47
2023/03/26 11:33:45;;;;;;;1.00;0.63;;;11.60;99.90;;;;;;5034775;28;19952;-44
2023/03/26 11:36:15;;;;;;;0.70;0.70;;;11.50;99.90;;;;;;5034083;28;20033;-48
2023/03/26 11:38:44;;;;;;;1.35;0.60;;;11.60;99.90;;;;;;5034083;28;20187;-43
2023/03/26 11:41:16;;;;;;;1.58;0.80;;;11.60;99.90;;;;;;5034877;28;20402;-51
2023/03/26 11:43:44;;;;;;;2.08;0.80;;;11.60;99.90;;;;;;5035534;28;20025;-48
2023/03/26 11:46:12;;;;;;;2.22;0.88;;;11.70;99.90;;;;;;5033718;28;20044;-43
2023/03/26 11:48:48;;;;;;;2.30;0.80;;;11.60;99.90;;;;;;5035037;28;20013;-45
2023/03/26 11:51:21;;;;;;;2.83;0.98;;;11.80;99.90;;;;;;5033884;28;20459;-53
2023/03/26 11:53:47;;;;;;;1.98;0.82;;;11.80;99.90;;;;;;5035042;28;20485;-51
2023/03/26 11:56:27;;;;;;;1.33;0.80;;;11.60;99.90;;;;;;5033949;28;20097;-45
2023/03/26 11:59:13;;;;;;;1.60;0.70;;;11.70;99.90;;;;;;5034946;28;20025;-47
2023/03/26 12:02:03;;;;;;;1.88;0.80;;;11.70;99.90;;;;;;5041059;28;20470;-46
2023/03/26 12:04:49;;;;;;;1.52;0.90;;;12.00;99.90;;;;;;5036507;28;20060;-50
2023/03/26 12:07:32;;;;;;;4.10;1.95;;;12.10;99.90;;;;;;5045284;28;20025;-54
2023/03/26 12:10:00;;;;;;;8.32;4.68;;;12.00;99.90;;;;;;5042586;28;20095;-44
2023/03/26 12:12:30;;;;;;;9.25;6.85;;;12.20;99.90;;;;;;5050101;28;20056;-51
2023/03/26 12:15:00;;;;;;;3.40;1.50;;;12.30;99.90;;;;;;5032282;28;20465;-50
2023/03/26 12:17:36;;;;;;;4.18;2.28;;;12.10;99.90;;;;;;5050152;28;20032;-47
2023/03/26 12:20:22;;;;;;;2.25;1.20;;;12.30;99.90;;;;;;5033273;28;20032;-47
2023/03/26 12:22:48;;;;;;;3.33;1.95;;;12.30;99.90;;;;;;5038975;28;20112;-51
2023/03/26 12:25:22;;;;;;;4.70;3.40;;;12.20;99.90;;;;;;5033711;28;20112;-42
2023/03/26 12:28:02;;;;;;;2.97;1.70;;;12.10;99.90;;;;;;5036895;28;20047;-43
2023/03/26 12:30:32;;;;;;;1.65;1.20;;;12.20;99.90;;;;;;5015599;28;20026;-51
2023/03/26 12:33:04;;;;;;;3.15;1.25;;;12.50;99.90;;;;;;5034596;28;20049;-55
2023/03/26 12:35:33;;;;;;;2.75;1.50;;;12.60;99.90;;;;;;5033041;28;20026;-52
2023/03/26 12:38:39;;;;;;;1.95;1.10;;;12.70;99.90;;;;;;5325745;23;20444;-44
2023/03/26 12:41:12;;;;;;;1.63;0.98;;;12.50;99.90;;;;;;5023273;23;20053;-45
2023/03/26 12:43:47;;;;;;;3.30;1.40;;;12.40;99.90;;;;;;5029149;28;20025;-44
2023/03/26 12:46:32;;;;;;;2.20;1.30;;;12.10;99.90;;;;;;5029865;28;20547;-44
2023/03/26 12:49:04;;;;;;;2.17;0.80;;;11.90;99.90;;;;;;5028699;28;20021;-45
2023/03/26 12:51:57;;;;;;;2.83;1.20;;;12.00;99.90;;;;;;5029908;28;20029;-45
2023/03/26 12:54:55;;;;;;;2.65;1.20;;;12.30;99.90;;;;;;5030101;28;20385;-42
2023/03/26 12:57:30;;;;;;;2.23;0.93;;;12.50;99.90;;;;;;4997228;28;20038;-46
2023/03/26 13:00:20;;;;;;;2.42;1.30;;;12.60;99.90;;;;;;5030296;28;20021;-45
2023/03/26 13:03:04;;;;;;;1.98;1.00;;;12.60;99.90;;;;;;5022689;28;20047;-43
2023/03/26 13:05:33;;;;;;;2.60;1.33;;;12.90;99.90;;;;;;4999998;28;20107;-49
2023/03/26 13:08:27;;;;;;;3.07;1.30;;;13.50;99.90;;;;;;5004332;28;20060;-46
2023/03/26 13:11:02;;;;;;;3.40;1.40;;;13.80;99.90;;;;;;5030771;28;20275;-43
2023/03/26 13:13:45;;;;;;;5.97;1.15;;;14.10;99.90;;;;;;5030720;28;20029;-41
2023/03/26 13:16:14;;;;;;;4.15;1.40;;;14.00;99.90;;;;;;5030861;28;20127;-42
2023/03/26 13:18:53;;;;;;;3.72;1.30;;;14.00;99.90;;;;;;5030543;28;20014;-41
2023/03/26 13:21:47;;;;;;;2.05;1.30;;;13.80;99.90;;;;;;5030690;28;20033;-47
2023/03/26 13:24:22;;;;;;;3.88;1.48;;;13.10;99.90;;;;;;5029912;28;20030;-42
2023/03/26 13:27:06;;;;;;;3.72;1.20;;;12.30;99.90;;;;;;5027906;28;20053;-41